createdAt,value
2018-10-16T00:00:21.212Z,11.53
2018-10-16T00:02:55.975Z,11.90
2018-10-16T00:05:30.715Z,12.70
2018-10-16T00:08:06.461Z,11.47
2018-10-16T00:10:45.139Z,13.03
2018-10-16T00:13:19.900Z,13.47
2018-10-16T00:15:54.777Z,14.50
2018-10-16T00:18:29.530Z,12.73
2018-10-16T00:21:04.414Z,13.13
2018-10-16T00:23:39.166Z,11.07
2018-10-16T00:26:13.931Z,13.47
2018-10-16T00:28:48.683Z,12.03
2018-10-16T00:31:23.391Z,12.30
2018-10-16T00:33:58.075Z,12.47
2018-10-16T00:36:32.828Z,13.50
2018-10-16T00:39:11.251Z,11.87
2018-10-16T00:41:51.216Z,11.40
2018-10-16T00:44:26.066Z,12.87
2018-10-16T00:47:00.918Z,12.00
2018-10-16T00:49:35.639Z,11.63
2018-10-16T00:52:10.287Z,12.30
2018-10-16T00:54:45.025Z,13.03
2018-10-16T00:57:20.513Z,12.20
2018-10-16T00:59:55.418Z,12.70
2018-10-16T01:02:30.194Z,12.27
2018-10-16T01:05:05.531Z,13.33
2018-10-16T01:07:40.922Z,11.87
2018-10-16T01:10:15.711Z,11.27
2018-10-16T01:12:50.507Z,11.67
2018-10-16T01:15:25.171Z,11.70
2018-10-16T01:17:59.903Z,11.63
2018-10-16T01:20:34.654Z,12.00
2018-10-16T01:23:09.531Z,12.50
2018-10-16T01:25:44.229Z,12.83
2018-10-16T01:28:18.954Z,12.10
2018-10-16T01:30:53.586Z,11.73
2018-10-16T01:33:28.567Z,12.37
2018-10-16T01:36:03.257Z,13.10
2018-10-16T01:38:37.959Z,16.13
2018-10-16T01:41:12.663Z,12.40
2018-10-16T01:43:47.423Z,15.43
2018-10-16T01:46:22.181Z,12.07
2018-10-16T01:48:56.974Z,13.63
2018-10-16T01:51:31.686Z,12.50
2018-10-16T01:54:06.512Z,12.80
2018-10-16T01:56:41.191Z,13.37
2018-10-16T01:59:15.939Z,13.00
2018-10-16T02:01:50.642Z,10.87
2018-10-16T02:04:25.438Z,12.67
2018-10-16T02:07:00.321Z,13.13
2018-10-16T02:09:35.193Z,16.03
2018-10-16T02:12:09.889Z,14.50
2018-10-16T02:14:44.740Z,12.97
2018-10-16T02:17:19.394Z,12.60
2018-10-16T02:19:54.092Z,12.87
2018-10-16T02:22:28.845Z,14.10
2018-10-16T02:25:03.689Z,13.80
2018-10-16T02:27:38.898Z,11.77
2018-10-16T02:30:19.827Z,12.70
2018-10-16T02:32:54.578Z,12.60
2018-10-16T02:35:29.436Z,12.10
2018-10-16T02:38:04.162Z,12.00
2018-10-16T02:40:38.990Z,13.30
2018-10-16T02:43:13.798Z,11.83
2018-10-16T02:45:48.578Z,14.30
2018-10-16T02:48:23.236Z,11.70
2018-10-16T02:50:57.957Z,12.27
2018-10-16T02:53:32.679Z,12.33
2018-10-16T02:56:07.733Z,12.13
2018-10-16T02:58:42.420Z,13.30
2018-10-16T03:01:17.210Z,12.57
2018-10-16T03:03:51.898Z,13.27
2018-10-16T03:06:26.659Z,12.73
2018-10-16T03:09:01.415Z,12.93
2018-10-16T03:11:36.184Z,14.40
2018-10-16T03:14:10.893Z,14.17
2018-10-16T03:16:45.629Z,12.60
2018-10-16T03:19:20.379Z,12.53
2018-10-16T03:21:55.157Z,12.90
2018-10-16T03:24:29.912Z,15.00
2018-10-16T03:27:04.683Z,12.27
2018-10-16T03:29:39.338Z,12.57
2018-10-16T03:32:14.064Z,12.87
2018-10-16T03:34:48.791Z,12.67
2018-10-16T03:37:23.570Z,14.03
2018-10-16T03:39:58.372Z,13.97
2018-10-16T03:42:33.136Z,14.33
2018-10-16T03:45:09.837Z,12.53
2018-10-16T03:47:44.742Z,11.97
2018-10-16T03:50:19.338Z,13.70
2018-10-16T03:52:54.126Z,12.87
2018-10-16T03:55:28.876Z,12.67
2018-10-16T03:58:03.751Z,12.80
2018-10-16T04:00:38.489Z,11.77
2018-10-16T04:03:13.241Z,11.53
2018-10-16T04:05:47.924Z,12.77
2018-10-16T04:08:22.679Z,12.17
2018-10-16T04:10:57.390Z,15.87
2018-10-16T04:13:32.095Z,12.83
2018-10-16T04:16:07.006Z,12.47
2018-10-16T04:18:41.809Z,13.23
2018-10-16T04:21:16.463Z,12.90
2018-10-16T04:23:51.169Z,12.30
2018-10-16T04:26:25.884Z,12.47
2018-10-16T04:29:00.791Z,13.13
2018-10-16T04:31:35.446Z,12.50
2018-10-16T04:34:10.697Z,12.23
2018-10-16T04:36:45.398Z,12.63
2018-10-16T04:39:20.059Z,16.80
2018-10-16T04:41:54.943Z,13.60
2018-10-16T04:44:29.606Z,12.67
2018-10-16T04:47:04.333Z,12.87
2018-10-16T04:49:39.027Z,13.23
2018-10-16T04:52:13.758Z,12.33
2018-10-16T05:01:45.390Z,12.30
2018-10-16T05:04:20.129Z,14.57
2018-10-16T05:06:54.858Z,13.93
2018-10-16T05:09:29.558Z,15.07
2018-10-16T05:12:04.378Z,13.90
2018-10-16T05:14:38.865Z,12.37
2018-10-16T05:17:16.577Z,13.50
2018-10-16T05:19:55.829Z,13.97
2018-10-16T05:22:30.467Z,13.07
2018-10-16T05:25:05.305Z,13.33
2018-10-16T05:27:39.935Z,13.27
2018-10-16T05:30:14.483Z,12.73
2018-10-16T05:32:49.321Z,12.00
2018-10-16T05:35:24.032Z,12.57
2018-10-16T05:37:59.664Z,12.73
2018-10-16T05:40:34.144Z,12.83
2018-10-16T05:43:08.785Z,13.57
2018-10-16T05:45:44.920Z,14.00
2018-10-16T05:48:19.435Z,14.07
2018-10-16T05:50:53.895Z,13.30
2018-10-16T05:53:28.449Z,13.43
2018-10-16T05:56:04.795Z,13.03
2018-10-16T05:58:39.353Z,13.53
2018-10-16T06:01:13.837Z,11.50
2018-10-16T06:03:48.353Z,13.50
2018-10-16T06:06:22.859Z,12.93
2018-10-16T06:08:57.405Z,11.87
2018-10-16T06:11:31.894Z,14.00
2018-10-16T06:14:06.441Z,12.43
2018-10-16T06:16:41.000Z,13.30
2018-10-16T06:19:15.552Z,13.93
2018-10-16T06:21:50.176Z,14.30
2018-10-16T06:24:24.819Z,13.37
2018-10-16T06:26:59.317Z,13.43
2018-10-16T06:29:33.887Z,14.23
2018-10-16T06:32:08.388Z,12.97
2018-10-16T06:34:42.880Z,13.60
2018-10-16T06:37:17.357Z,15.07
2018-10-16T06:39:51.935Z,11.27
2018-10-16T06:42:26.440Z,12.10
2018-10-16T06:45:01.037Z,13.97
2018-10-16T06:47:36.599Z,16.03
2018-10-16T06:50:11.615Z,15.13
2018-10-16T06:52:46.504Z,13.97
2018-10-16T06:55:27.410Z,11.90
2018-10-16T06:58:02.242Z,12.73
2018-10-16T07:00:37.209Z,13.53
2018-10-16T07:03:13.523Z,12.30
2018-10-16T07:05:48.699Z,13.23
2018-10-16T07:08:29.083Z,13.47
2018-10-16T07:11:05.403Z,13.93
2018-10-16T07:13:42.159Z,12.23
2018-10-16T07:16:18.963Z,13.67
2018-10-16T07:19:00.382Z,12.03
2018-10-16T07:21:35.999Z,13.80
2018-10-16T07:24:14.657Z,12.30
2018-10-16T07:26:51.849Z,12.47
2018-10-16T07:29:31.309Z,13.27
2018-10-16T07:32:07.147Z,14.63
2018-10-16T07:37:19.855Z,12.43
2018-10-16T07:39:55.595Z,12.47
2018-10-16T07:45:10.793Z,12.40
2018-10-16T07:50:22.197Z,15.70
2018-10-16T07:52:58.575Z,12.83
2018-10-16T07:55:38.570Z,12.73
2018-10-16T07:58:19.109Z,13.60
2018-10-16T08:00:58.104Z,14.10
2018-10-16T08:03:34.132Z,11.93
2018-10-16T08:06:14.006Z,11.93
2018-10-16T08:11:27.430Z,13.77
2018-10-16T08:16:43.632Z,12.07
2018-10-16T08:19:18.331Z,11.83
2018-10-16T08:21:53.060Z,12.10
2018-10-16T08:24:27.759Z,13.80
2018-10-16T08:27:02.315Z,13.77
2018-10-16T08:29:36.823Z,13.20
2018-10-16T08:32:11.356Z,11.40
2018-10-16T08:34:46.496Z,11.63
2018-10-16T08:37:32.472Z,14.63
2018-10-16T08:40:07.211Z,11.70
2018-10-16T08:43:54.369Z,11.20
2018-10-16T08:46:40.110Z,11.57
2018-10-16T08:49:25.786Z,11.07
2018-10-16T08:52:01.694Z,12.93
2018-10-16T08:54:37.244Z,11.80
2018-10-16T08:57:14.562Z,12.73
2018-10-16T08:59:49.871Z,11.60
2018-10-16T09:02:24.439Z,11.73
2018-10-16T09:04:59.934Z,11.37
2018-10-16T09:07:35.783Z,10.60
2018-10-16T09:10:10.857Z,11.60
2018-10-16T09:12:46.458Z,11.43
2018-10-16T09:15:28.865Z,11.73
2018-10-16T09:18:03.756Z,12.73
2018-10-16T09:23:17.345Z,12.30
2018-10-16T09:25:52.610Z,11.23
2018-10-16T09:28:27.269Z,11.80
2018-10-16T09:31:04.062Z,11.40
2018-10-16T09:33:41.346Z,11.17
2018-10-16T09:36:18.367Z,10.17
2018-10-16T09:38:53.013Z,10.90
2018-10-16T09:41:27.588Z,10.37
2018-10-16T09:44:02.244Z,10.23
2018-10-16T09:46:37.275Z,10.23
2018-10-16T09:49:11.834Z,9.90
2018-10-16T09:51:46.466Z,12.10
2018-10-16T09:54:21.047Z,10.10
2018-10-16T09:56:56.730Z,11.13
2018-10-16T09:59:36.207Z,10.40
2018-10-16T10:02:12.646Z,10.70
2018-10-16T10:15:34.658Z,13.27
2018-10-16T10:20:59.860Z,10.73
2018-10-16T10:23:35.578Z,10.67
2018-10-16T10:26:10.165Z,10.27
2018-10-16T10:28:48.074Z,11.33
2018-10-16T10:31:22.671Z,10.27
2018-10-16T10:36:33.503Z,11.03
2018-10-16T10:39:10.763Z,10.03
2018-10-16T10:41:45.619Z,11.93
2018-10-16T10:46:59.162Z,12.40
2018-10-16T10:52:07.692Z,10.30
2018-10-16T10:57:16.363Z,9.60
2018-10-16T10:59:52.031Z,10.17
2018-10-16T11:02:30.682Z,12.00
2018-10-16T11:07:47.326Z,9.63
2018-10-16T11:13:05.257Z,9.13
2018-10-16T11:18:17.622Z,9.20
2018-10-16T11:23:27.353Z,10.07
2018-10-16T11:26:02.561Z,9.23
2018-10-16T11:28:40.457Z,10.30
2018-10-16T11:31:16.211Z,9.77
2018-10-16T11:33:51.999Z,9.83
2018-10-16T11:36:29.309Z,9.70
2018-10-16T11:39:07.061Z,8.73
2018-10-16T11:41:42.290Z,9.60
2018-10-16T11:46:55.649Z,9.57
2018-10-16T11:49:34.013Z,10.17
2018-10-16T11:52:11.586Z,9.77
2018-10-16T11:54:47.279Z,9.67
2018-10-16T11:57:22.103Z,9.17
2018-10-16T11:59:57.788Z,9.83
2018-10-16T12:05:07.133Z,9.80
2018-10-16T12:07:42.498Z,11.53
2018-10-16T12:10:17.379Z,13.07
2018-10-16T12:12:52.161Z,9.80
2018-10-16T12:15:27.866Z,9.57
2018-10-16T12:18:14.817Z,18.53
2018-10-16T12:21:00.663Z,10.70
2018-10-16T12:23:36.379Z,10.80
2018-10-16T12:28:44.787Z,9.27
2018-10-16T12:31:20.302Z,10.17
2018-10-16T12:33:55.032Z,10.03
2018-10-16T12:36:30.742Z,10.77
2018-10-16T12:39:08.508Z,9.43
2018-10-16T12:41:43.760Z,9.43
2018-10-16T12:44:18.802Z,9.87
2018-10-16T12:46:54.716Z,10.20
2018-10-16T12:49:29.459Z,10.30
2018-10-16T12:52:04.657Z,10.70
2018-10-16T12:54:42.238Z,10.10
2018-10-16T12:57:17.789Z,9.50
2018-10-16T12:59:52.996Z,8.93
2018-10-16T13:02:27.748Z,9.67
2018-10-16T13:05:03.180Z,9.57
2018-10-16T13:07:39.755Z,8.80
2018-10-16T13:10:17.574Z,9.30
2018-10-16T13:12:52.376Z,9.10
2018-10-16T13:15:27.942Z,8.77
2018-10-16T13:18:07.773Z,9.90
2018-10-16T13:20:45.617Z,9.93
2018-10-16T13:25:58.189Z,9.03
2018-10-16T13:28:36.863Z,9.17
2018-10-16T13:31:12.408Z,8.87
2018-10-16T13:33:47.778Z,9.07
2018-10-16T13:36:22.602Z,8.73
2018-10-16T13:41:39.168Z,9.37
2018-10-16T13:46:52.367Z,9.07
2018-10-16T13:49:27.154Z,8.70
2018-10-16T13:52:02.712Z,9.33
2018-10-16T13:54:37.412Z,9.40
2018-10-16T13:57:12.130Z,8.37
2018-10-16T13:59:50.037Z,9.07
2018-10-16T14:02:28.835Z,9.17
2018-10-16T14:05:03.740Z,9.20
2018-10-16T14:07:38.380Z,9.23
2018-10-16T14:10:15.079Z,9.27
2018-10-16T14:12:49.688Z,10.07
2018-10-16T14:15:24.611Z,10.33
2018-10-16T14:17:59.358Z,9.77
2018-10-16T14:20:34.083Z,10.30
2018-10-16T14:23:08.793Z,9.40
2018-10-16T14:25:43.547Z,9.80
2018-10-16T14:28:18.284Z,9.10
2018-10-16T14:30:53.000Z,9.57
2018-10-16T14:33:27.710Z,9.80
2018-10-16T14:36:02.396Z,9.93
2018-10-16T14:38:37.102Z,9.27
2018-10-16T14:41:11.804Z,9.67
2018-10-16T14:43:46.555Z,10.93
2018-10-16T14:46:21.225Z,9.37
2018-10-16T14:48:55.949Z,10.20
2018-10-16T14:51:30.644Z,10.27
2018-10-16T14:54:05.411Z,9.83
2018-10-16T14:56:40.067Z,9.47
2018-10-16T14:59:14.787Z,9.93
2018-10-16T15:01:49.437Z,9.30
2018-10-16T15:04:24.183Z,9.43
2018-10-16T15:06:58.858Z,10.13
2018-10-16T15:09:33.426Z,9.97
2018-10-16T15:12:07.850Z,10.07
2018-10-16T15:14:42.292Z,11.17
2018-10-16T15:17:16.726Z,10.30
2018-10-16T15:19:51.206Z,9.60
2018-10-16T15:22:25.639Z,10.47
2018-10-16T15:25:00.157Z,10.33
2018-10-16T15:27:34.614Z,10.00
2018-10-16T15:30:10.082Z,10.27
2018-10-16T15:32:44.609Z,11.63
2018-10-16T15:35:19.170Z,10.13
2018-10-16T15:37:54.827Z,11.47
2018-10-16T15:40:31.362Z,10.50
2018-10-16T15:43:12.262Z,10.73
2018-10-16T15:45:47.334Z,9.90
2018-10-16T15:51:01.111Z,14.93
2018-10-16T15:53:45.856Z,10.73
2018-10-16T15:56:25.164Z,11.33
2018-10-16T15:59:12.169Z,10.70
2018-10-16T16:01:47.233Z,9.70
2018-10-16T16:04:24.044Z,11.87
2018-10-16T16:07:06.413Z,10.17
2018-10-16T16:12:30.417Z,10.07
2018-10-16T16:15:05.648Z,12.37
2018-10-16T16:17:46.552Z,10.87
2018-10-16T16:20:21.268Z,11.63
2018-10-16T16:22:55.785Z,12.23
2018-10-16T16:25:30.707Z,9.57
2018-10-16T16:30:45.452Z,10.67
2018-10-16T16:33:21.502Z,10.63
2018-10-16T16:35:57.972Z,10.33
2018-10-16T16:38:34.232Z,10.63
2018-10-16T16:41:10.945Z,9.80
2018-10-16T16:43:49.850Z,10.50
2018-10-16T16:46:27.563Z,11.30
2018-10-16T16:51:40.783Z,10.83
2018-10-16T16:56:50.141Z,11.33
2018-10-16T16:59:24.937Z,10.93
2018-10-16T17:01:59.754Z,10.60
2018-10-16T17:04:34.587Z,11.13
2018-10-16T17:07:09.861Z,11.43
2018-10-16T17:09:45.355Z,12.80
2018-10-16T17:12:23.602Z,11.33
2018-10-16T17:15:01.227Z,12.53
2018-10-16T17:17:40.997Z,11.67
2018-10-16T17:20:17.094Z,12.07
2018-10-16T17:22:52.427Z,11.80
2018-10-16T17:25:31.262Z,11.83
2018-10-16T17:28:09.822Z,11.77
2018-10-16T17:33:19.242Z,12.13
2018-10-16T17:43:55.459Z,12.57
2018-10-16T17:46:30.656Z,12.83
2018-10-16T17:49:06.597Z,11.43
2018-10-16T17:51:42.434Z,12.10
2018-10-16T17:56:58.658Z,12.80
2018-10-16T17:59:34.155Z,14.17
2018-10-16T18:02:10.123Z,14.47
2018-10-16T18:04:46.267Z,13.77
2018-10-16T18:07:21.009Z,14.77
2018-10-16T18:10:00.903Z,16.13
2018-10-16T18:17:58.165Z,12.37
2018-10-16T18:20:39.462Z,15.73
2018-10-16T18:23:19.649Z,13.13
2018-10-16T18:25:57.094Z,12.67
2018-10-16T18:28:36.229Z,12.30
2018-10-16T18:31:19.055Z,12.13
2018-10-16T18:36:47.635Z,15.40
2018-10-16T18:39:35.544Z,12.17
2018-10-16T18:47:44.396Z,12.03
2018-10-16T18:50:27.023Z,12.33
2018-10-16T18:53:05.641Z,12.13
2018-10-16T18:58:21.346Z,14.03
2018-10-16T19:03:38.694Z,11.70
2018-10-16T19:06:18.368Z,14.67
2018-10-16T19:08:58.061Z,13.07
2018-10-16T19:14:11.982Z,12.83
2018-10-16T19:16:52.029Z,13.80
2018-10-16T19:19:33.373Z,13.33
2018-10-16T19:22:09.856Z,12.40
2018-10-16T19:25:50.950Z,12.97
2018-10-16T19:28:30.746Z,12.63
2018-10-16T19:33:53.187Z,15.10
2018-10-16T19:36:32.904Z,14.00
2018-10-16T19:41:48.081Z,14.90
2018-10-16T19:44:27.228Z,14.27
2018-10-16T19:47:03.224Z,14.23
2018-10-16T19:54:58.142Z,15.93
2018-10-16T19:57:36.993Z,15.97
2018-10-16T20:00:13.479Z,15.13
2018-10-16T20:05:31.060Z,14.30
2018-10-16T20:10:43.950Z,18.07
2018-10-16T20:13:20.460Z,15.00
2018-10-16T20:21:11.639Z,13.97
2018-10-16T20:31:49.779Z,15.70
2018-10-16T20:37:02.378Z,16.23
2018-10-16T20:39:38.518Z,16.93
2018-10-16T20:44:55.906Z,16.10
2018-10-16T20:58:07.792Z,15.63
2018-10-16T21:00:47.401Z,16.47
2018-10-16T21:06:01.560Z,15.60
2018-10-16T21:08:40.660Z,16.53
2018-10-16T21:11:16.320Z,14.77
2018-10-16T21:13:53.531Z,14.53
2018-10-16T21:19:15.266Z,17.03
2018-10-16T21:24:31.249Z,14.90
2018-10-16T21:27:08.846Z,17.83
2018-10-16T21:32:19.782Z,14.87
2018-10-16T21:37:37.584Z,15.07
2018-10-16T21:42:51.022Z,14.80
2018-10-16T21:56:02.008Z,15.67
2018-10-16T22:01:17.559Z,15.47
2018-10-16T22:06:31.563Z,17.23
2018-10-16T22:14:22.842Z,16.83
2018-10-16T22:17:02.515Z,15.30
2018-10-16T22:22:21.942Z,15.57
2018-10-16T22:25:01.597Z,14.97
2018-10-16T22:30:15.272Z,15.63
2018-10-16T22:32:55.149Z,16.53
2018-10-16T22:38:09.887Z,17.80
2018-10-16T22:43:23.728Z,16.40
2018-10-16T22:48:41.117Z,15.93
2018-10-16T22:51:18.202Z,18.17
2018-10-16T22:53:53.961Z,16.73
2018-10-16T23:07:05.826Z,17.20
2018-10-16T23:09:42.473Z,15.30
2018-10-16T23:12:19.397Z,15.83
2018-10-16T23:17:34.745Z,15.57
2018-10-16T23:25:24.573Z,19.37
2018-10-16T23:28:04.158Z,16.17
2018-10-16T23:41:19.260Z,17.60
2018-10-16T23:46:32.335Z,19.40
2018-10-16T23:51:47.662Z,15.63
2018-10-16T23:54:23.436Z,15.90
2018-10-16T23:57:01.065Z,16.03
